Time;durP1;ratioP1;P1;durP2;ratioP2;P2;SDS_P1;SDS_P2;PMS_P1;PMS_P2;Temp;Humidity;BMP_temperature;BMP_pressure;BME280_temperature;BME280_humidity;BME280_pressure;Samples;Min_cycle;Max_cycle;Signal;HPM_P1;HPM_P2
2021/09/12 00:00:29;;;;;;;;;13.67;12.33;;;;;;;;5081864;27;45578;-79
2021/09/12 00:02:54;;;;;;;;;15.00;11.75;;;;;;;;5068568;28;45759;-79
2021/09/12 00:05:19;;;;;;;;;11.75;10.00;;;;;;;;5068750;28;45470;-79
2021/09/12 00:07:45;;;;;;;;;16.00;12.50;;;;;;;;5064865;28;45797;-78
2021/09/12 00:10:10;;;;;;;;;16.75;15.25;;;;;;;;5064161;28;45534;-79
2021/09/12 00:12:37;;;;;;;;;9.75;9.50;;;;;;;;5064642;28;45495;-79
2021/09/12 00:15:03;;;;;;;;;11.75;10.75;;;;;;;;5068873;27;45559;-79
2021/09/12 00:17:28;;;;;;;;;10.50;9.25;;;;;;;;5073898;27;45499;-79
2021/09/12 00:19:53;;;;;;;;;13.50;10.50;;;;;;;;5077812;28;45419;-79
2021/09/12 00:22:19;;;;;;;;;12.33;12.00;;;;;;;;5077903;28;45637;-79
2021/09/12 00:24:44;;;;;;;;;12.67;10.33;;;;;;;;5072658;27;46111;-79
2021/09/12 00:27:09;;;;;;;;;17.67;14.00;;;;;;;;5077283;28;45757;-78
2021/09/12 00:29:34;;;;;;;;;12.00;11.00;;;;;;;;5072375;28;45532;-78
2021/09/12 00:32:00;;;;;;;;;12.67;11.00;;;;;;;;5065823;28;45471;-78
2021/09/12 00:34:25;;;;;;;;;9.00;7.00;;;;;;;;5075413;28;45264;-79
2021/09/12 00:36:50;;;;;;;;;13.33;12.00;;;;;;;;5070686;28;45948;-79
2021/09/12 00:39:15;;;;;;;;;13.75;11.75;;;;;;;;5080555;27;45395;-79
2021/09/12 00:41:41;;;;;;;;;12.50;11.00;;;;;;;;5071110;27;45461;-79
2021/09/12 00:44:12;;;;;;;;;12.00;10.00;;;;;;;;5069326;28;45250;-78
2021/09/12 00:46:38;;;;;;;;;15.50;10.25;;;;;;;;5075372;28;45805;-78
2021/09/12 00:49:03;;;;;;;;;13.75;9.75;;;;;;;;5073674;28;45464;-79
2021/09/12 00:51:28;;;;;;;;;16.67;13.00;;;;;;;;5078614;28;45721;-79
2021/09/12 00:53:54;;;;;;;;;21.00;13.67;;;;;;;;5081003;27;45586;-78
2021/09/12 00:56:20;;;;;;;;;17.25;13.50;;;;;;;;5083443;27;45576;-79
2021/09/12 00:58:46;;;;;;;;;16.50;13.00;;;;;;;;5083030;28;45537;-79
2021/09/12 01:01:13;;;;;;;;;16.75;14.75;;;;;;;;5074333;27;45591;-79
2021/09/12 01:03:38;;;;;;;;;14.00;12.00;;;;;;;;5070621;28;47617;-78
2021/09/12 01:06:04;;;;;;;;;12.00;11.33;;;;;;;;5073319;28;45170;-78
2021/09/12 01:08:29;;;;;;;;;15.75;12.50;;;;;;;;5075706;27;45161;-78
2021/09/12 01:10:55;;;;;;;;;12.00;10.25;;;;;;;;5070071;27;45489;-78
2021/09/12 01:13:20;;;;;;;;;16.75;12.75;;;;;;;;5071886;27;46104;-78
2021/09/12 01:15:45;;;;;;;;;16.33;14.33;;;;;;;;5079733;28;45797;-78
2021/09/12 01:18:11;;;;;;;;;17.75;11.50;;;;;;;;5078299;27;45469;-79
2021/09/12 01:20:37;;;;;;;;;12.75;11.50;;;;;;;;5080111;27;45457;-79
2021/09/12 01:23:03;;;;;;;;;11.00;11.00;;;;;;;;5075584;28;45450;-78
2021/09/12 01:25:28;;;;;;;;;9.00;6.50;;;;;;;;5083486;27;45603;-79
2021/09/12 01:27:54;;;;;;;;;14.75;12.25;;;;;;;;5078887;28;45538;-78
2021/09/12 01:30:19;;;;;;;;;13.50;11.50;;;;;;;;5071663;28;45466;-79
2021/09/12 01:32:44;;;;;;;;;14.00;12.00;;;;;;;;5080524;27;46219;-78
2021/09/12 01:35:09;;;;;;;;;12.00;10.33;;;;;;;;5082076;28;45387;-78
2021/09/12 01:37:35;;;;;;;;;11.25;10.25;;;;;;;;5067845;28;45457;-78
2021/09/12 01:40:00;;;;;;;;;10.50;9.50;;;;;;;;5080140;28;45544;-79
2021/09/12 01:42:25;;;;;;;;;7.75;7.00;;;;;;;;5081641;28;47470;-78
2021/09/12 01:44:51;;;;;;;;;11.25;9.75;;;;;;;;5081580;28;45279;-79
2021/09/12 01:47:17;;;;;;;;;10.50;7.00;;;;;;;;5080441;28;45484;-79
2021/09/12 01:49:43;;;;;;;;;7.75;7.75;;;;;;;;5080888;28;45632;-78
2021/09/12 01:52:12;;;;;;;;;9.50;8.00;;;;;;;;5079350;27;45500;-79
2021/09/12 01:54:37;;;;;;;;;11.50;10.00;;;;;;;;5078224;28;45755;-78
2021/09/12 01:57:03;;;;;;;;;9.75;9.75;;;;;;;;5075754;28;45397;-78
2021/09/12 01:59:28;;;;;;;;;12.50;10.75;;;;;;;;5076261;28;45388;-78
2021/09/12 02:01:53;;;;;;;;;8.00;7.67;;;;;;;;5066161;28;45516;-79
2021/09/12 02:04:18;;;;;;;;;10.67;8.67;;;;;;;;5074786;28;45483;-78
2021/09/12 02:06:44;;;;;;;;;6.67;6.00;;;;;;;;5069810;28;45493;-78
2021/09/12 02:09:09;;;;;;;;;10.33;8.33;;;;;;;;5077741;28;45489;-78
2021/09/12 02:11:34;;;;;;;;;7.67;7.67;;;;;;;;5077760;28;46150;-78
2021/09/12 02:14:00;;;;;;;;;8.00;8.00;;;;;;;;5076624;28;45451;-79
2021/09/12 02:16:25;;;;;;;;;10.50;7.00;;;;;;;;5077167;28;45487;-78
2021/09/12 02:18:51;;;;;;;;;8.50;7.25;;;;;;;;5077816;27;45449;-79
2021/09/12 02:21:16;;;;;;;;;9.75;7.50;;;;;;;;5080938;27;45988;-78
2021/09/12 02:23:42;;;;;;;;;9.00;7.25;;;;;;;;5073669;28;45409;-78
2021/09/12 02:26:07;;;;;;;;;11.75;9.25;;;;;;;;5072230;28;45442;-78
2021/09/12 02:28:32;;;;;;;;;12.25;8.00;;;;;;;;5071970;28;45351;-79
2021/09/12 02:30:57;;;;;;;;;10.67;8.00;;;;;;;;5072374;28;45508;-78
2021/09/12 02:33:23;;;;;;;;;7.00;7.00;;;;;;;;5069804;28;45244;-78
2021/09/12 02:35:48;;;;;;;;;9.00;9.00;;;;;;;;5064679;28;45430;-78
2021/09/12 02:38:13;;;;;;;;;9.75;9.00;;;;;;;;5069564;28;45457;-78
2021/09/12 02:40:39;;;;;;;;;9.25;7.00;;;;;;;;5080395;28;48319;-79
2021/09/12 02:43:06;;;;;;;;;9.75;7.50;;;;;;;;5078035;28;45296;-79
2021/09/12 02:45:31;;;;;;;;;9.50;9.00;;;;;;;;5065436;28;45385;-79
2021/09/12 02:47:57;;;;;;;;;9.00;9.00;;;;;;;;5069455;28;45479;-79
2021/09/12 02:50:22;;;;;;;;;10.33;7.00;;;;;;;;5078126;28;45531;-79
2021/09/12 02:52:47;;;;;;;;;12.75;7.00;;;;;;;;5068263;28;45443;-79
2021/09/12 02:55:12;;;;;;;;;12.50;9.00;;;;;;;;5068698;28;45514;-79
2021/09/12 02:57:38;;;;;;;;;11.00;8.67;;;;;;;;5068367;27;45627;-79
2021/09/12 03:00:03;;;;;;;;;11.50;8.75;;;;;;;;5070241;28;46943;-78
2021/09/12 03:02:28;;;;;;;;;10.50;7.75;;;;;;;;5066757;28;45412;-79
2021/09/12 03:04:54;;;;;;;;;13.00;10.33;;;;;;;;5071786;28;45369;-79
2021/09/12 03:07:19;;;;;;;;;8.50;8.25;;;;;;;;5065701;28;45402;-79
2021/09/12 03:09:44;;;;;;;;;9.00;8.50;;;;;;;;5070459;28;46234;-79
2021/09/12 03:12:09;;;;;;;;;8.00;8.00;;;;;;;;5062926;28;46018;-79
2021/09/12 03:14:34;;;;;;;;;11.00;7.00;;;;;;;;5072682;28;45395;-79
2021/09/12 03:17:00;;;;;;;;;9.33;8.00;;;;;;;;5070165;28;45713;-78
2021/09/12 03:19:25;;;;;;;;;13.67;8.00;;;;;;;;5078488;28;46345;-79
2021/09/12 03:21:50;;;;;;;;;10.00;9.00;;;;;;;;5075299;28;45347;-79
2021/09/12 03:24:15;;;;;;;;;10.67;9.00;;;;;;;;5075658;28;45440;-79
2021/09/12 03:26:41;;;;;;;;;6.75;6.25;;;;;;;;5073606;28;45463;-79
2021/09/12 03:29:06;;;;;;;;;11.00;10.25;;;;;;;;5072934;28;45862;-78
2021/09/12 03:31:31;;;;;;;;;11.25;8.00;;;;;;;;5080987;28;45231;-79
2021/09/12 03:33:57;;;;;;;;;10.75;7.25;;;;;;;;5070146;27;45604;-79
2021/09/12 03:36:22;;;;;;;;;9.00;7.50;;;;;;;;5066677;28;45462;-79
2021/09/12 03:38:47;;;;;;;;;9.00;8.00;;;;;;;;5067542;28;45405;-79
2021/09/12 03:41:12;;;;;;;;;6.75;6.75;;;;;;;;5077219;28;45324;-79
2021/09/12 03:43:38;;;;;;;;;9.25;9.25;;;;;;;;5079810;28;45484;-78
2021/09/12 03:46:03;;;;;;;;;11.50;7.00;;;;;;;;5080834;28;46071;-79
2021/09/12 03:48:28;;;;;;;;;11.50;9.75;;;;;;;;5077986;28;47084;-79
2021/09/12 03:50:54;;;;;;;;;11.75;10.75;;;;;;;;5082786;27;45366;-79
2021/09/12 03:53:20;;;;;;;;;15.25;10.50;;;;;;;;5070618;28;45394;-79
2021/09/12 03:55:45;;;;;;;;;10.50;9.00;;;;;;;;5077492;28;45323;-79
2021/09/12 03:58:10;;;;;;;;;9.67;9.67;;;;;;;;5070547;27;47306;-79
2021/09/12 04:00:35;;;;;;;;;11.33;8.00;;;;;;;;5069434;28;45377;-78
2021/09/12 04:03:01;;;;;;;;;12.75;9.00;;;;;;;;5065011;27;45350;-79
2021/09/12 04:05:26;;;;;;;;;8.25;7.00;;;;;;;;5066475;28;45712;-79
2021/09/12 04:07:51;;;;;;;;;13.00;9.00;;;;;;;;5068147;28;46014;-78
2021/09/12 04:10:17;;;;;;;;;11.25;10.25;;;;;;;;5083149;28;45424;-78
2021/09/12 04:12:43;;;;;;;;;11.75;10.25;;;;;;;;5068625;28;45407;-79
2021/09/12 04:15:08;;;;;;;;;12.50;10.00;;;;;;;;5071557;27;45500;-79
2021/09/12 04:17:33;;;;;;;;;9.00;8.67;;;;;;;;5067671;28;45678;-79
2021/09/12 04:19:58;;;;;;;;;12.00;8.33;;;;;;;;5084460;28;45329;-79
2021/09/12 04:22:24;;;;;;;;;13.67;10.67;;;;;;;;5079234;27;45294;-78
2021/09/12 04:24:49;;;;;;;;;13.75;10.50;;;;;;;;5083487;28;45306;-79
2021/09/12 04:27:15;;;;;;;;;12.50;10.50;;;;;;;;5075864;28;46387;-79
2021/09/12 04:29:41;;;;;;;;;11.75;10.00;;;;;;;;5081365;27;45441;-79
2021/09/12 04:32:07;;;;;;;;;12.25;11.25;;;;;;;;5076670;27;45251;-79
2021/09/12 04:34:32;;;;;;;;;12.75;11.00;;;;;;;;5077488;28;45417;-79
2021/09/12 04:36:57;;;;;;;;;9.33;9.33;;;;;;;;5071040;28;46340;-78
2021/09/12 04:39:22;;;;;;;;;12.50;10.25;;;;;;;;5072244;28;45184;-78
2021/09/12 04:41:48;;;;;;;;;12.00;10.00;;;;;;;;5078728;28;47395;-79
2021/09/12 04:44:13;;;;;;;;;10.67;8.33;;;;;;;;5077633;28;45208;-79
2021/09/12 04:46:38;;;;;;;;;11.33;11.00;;;;;;;;5079025;27;46032;-79
2021/09/12 04:49:03;;;;;;;;;11.33;9.33;;;;;;;;5074385;27;45439;-79
2021/09/12 04:51:29;;;;;;;;;11.00;9.00;;;;;;;;5077138;28;45326;-79
2021/09/12 04:53:55;;;;;;;;;11.00;10.00;;;;;;;;5074401;28;45611;-79
2021/09/12 04:56:20;;;;;;;;;11.25;10.50;;;;;;;;5070981;27;46362;-79
2021/09/12 04:58:46;;;;;;;;;15.75;11.50;;;;;;;;5068595;28;45472;-79
2021/09/12 05:01:11;;;;;;;;;10.00;10.00;;;;;;;;5068335;27;45357;-79
2021/09/12 05:03:36;;;;;;;;;12.00;9.33;;;;;;;;5063996;28;45552;-79
2021/09/12 05:06:01;;;;;;;;;13.67;9.33;;;;;;;;5067358;27;46202;-79
2021/09/12 05:08:27;;;;;;;;;15.00;10.67;;;;;;;;5071968;28;45512;-79
2021/09/12 05:10:52;;;;;;;;;12.33;9.33;;;;;;;;5065244;27;45457;-79
2021/09/12 05:13:17;;;;;;;;;11.50;11.00;;;;;;;;5069712;28;45694;-79
2021/09/12 05:15:43;;;;;;;;;14.00;10.67;;;;;;;;5077970;28;46076;-79
2021/09/12 05:18:10;;;;;;;;;10.00;9.00;;;;;;;;5080003;28;45406;-79
2021/09/12 05:20:37;;;;;;;;;13.00;10.25;;;;;;;;5077176;28;45358;-79
2021/09/12 05:23:02;;;;;;;;;13.50;9.75;;;;;;;;5082057;27;45363;-78
2021/09/12 05:25:27;;;;;;;;;13.00;8.75;;;;;;;;5075589;27;45390;-79
2021/09/12 05:27:52;;;;;;;;;12.75;12.75;;;;;;;;5077528;28;45232;-79
2021/09/12 05:30:18;;;;;;;;;12.33;10.33;;;;;;;;5073546;27;45418;-79
2021/09/12 05:32:46;;;;;;;;;13.33;12.00;;;;;;;;5072949;28;45314;-79
2021/09/12 05:35:11;;;;;;;;;11.25;11.25;;;;;;;;5071789;27;46160;-78
2021/09/12 05:37:37;;;;;;;;;13.25;12.00;;;;;;;;5064581;28;45445;-79
2021/09/12 05:40:03;;;;;;;;;13.33;12.00;;;;;;;;5081160;28;45491;-78
2021/09/12 05:42:28;;;;;;;;;11.50;9.00;;;;;;;;5075531;28;45493;-79
2021/09/12 05:44:53;;;;;;;;;11.67;9.33;;;;;;;;5074243;28;45437;-80
2021/09/12 05:47:18;;;;;;;;;12.67;11.00;;;;;;;;5073688;27;45378;-78
2021/09/12 05:49:44;;;;;;;;;13.50;12.75;;;;;;;;5077621;28;45378;-78
2021/09/12 05:52:10;;;;;;;;;13.50;12.00;;;;;;;;5071808;28;45551;-79
2021/09/12 05:54:35;;;;;;;;;13.00;10.25;;;;;;;;5077036;28;47880;-79
2021/09/12 05:57:00;;;;;;;;;12.67;10.33;;;;;;;;5070036;28;45464;-79
2021/09/12 05:59:25;;;;;;;;;17.50;11.00;;;;;;;;5076318;28;45465;-79
2021/09/12 06:01:51;;;;;;;;;11.00;11.00;;;;;;;;5065830;28;45771;-79
2021/09/12 06:04:16;;;;;;;;;15.25;12.50;;;;;;;;5074661;28;47307;-79
2021/09/12 06:06:41;;;;;;;;;14.33;12.00;;;;;;;;5065135;28;45355;-79
2021/09/12 06:09:06;;;;;;;;;11.67;11.67;;;;;;;;5073873;27;45361;-79
2021/09/12 06:11:32;;;;;;;;;10.00;9.67;;;;;;;;5061111;28;45459;-79
2021/09/12 06:13:57;;;;;;;;;17.00;12.75;;;;;;;;5075752;28;47467;-79
2021/09/12 06:16:22;;;;;;;;;14.00;12.00;;;;;;;;5079398;28;46030;-79
2021/09/12 06:18:47;;;;;;;;;12.67;10.67;;;;;;;;5071383;28;45694;-79
2021/09/12 06:21:13;;;;;;;;;13.33;12.00;;;;;;;;5081007;28;45517;-79
2021/09/12 06:23:38;;;;;;;;;11.50;11.50;;;;;;;;5080227;27;45298;-78
2021/09/12 06:26:03;;;;;;;;;12.67;12.00;;;;;;;;5074908;28;45598;-79
2021/09/12 06:28:29;;;;;;;;;13.25;12.50;;;;;;;;5076481;28;45520;-79
2021/09/12 06:30:54;;;;;;;;;11.00;10.50;;;;;;;;5078833;27;45406;-79
2021/09/12 06:33:19;;;;;;;;;13.00;11.33;;;;;;;;5070608;28;47305;-79
2021/09/12 06:35:45;;;;;;;;;13.75;12.25;;;;;;;;5070437;28;45445;-79
2021/09/12 06:38:10;;;;;;;;;16.00;14.00;;;;;;;;5073657;28;45618;-80
2021/09/12 06:40:35;;;;;;;;;18.50;14.50;;;;;;;;5067254;28;45571;-79
2021/09/12 06:43:02;;;;;;;;;12.00;11.33;;;;;;;;5065153;28;47991;-79
2021/09/12 06:45:28;;;;;;;;;13.50;11.75;;;;;;;;5075448;28;45442;-79
2021/09/12 06:47:53;;;;;;;;;14.75;14.75;;;;;;;;5070150;28;45573;-79
2021/09/12 06:50:20;;;;;;;;;15.50;12.00;;;;;;;;5077641;27;45454;-79
2021/09/12 06:52:45;;;;;;;;;14.75;11.75;;;;;;;;5065962;27;45465;-79
2021/09/12 06:55:10;;;;;;;;;14.25;13.00;;;;;;;;5070998;28;45427;-79
2021/09/12 06:57:35;;;;;;;;;11.25;9.75;;;;;;;;5068286;28;45639;-79
2021/09/12 07:00:01;;;;;;;;;13.00;13.00;;;;;;;;5072252;28;45561;-79
2021/09/12 07:02:26;;;;;;;;;15.00;13.00;;;;;;;;5078224;28;48420;-78
2021/09/12 07:04:51;;;;;;;;;15.50;11.00;;;;;;;;5076447;27;45396;-79
2021/09/12 07:07:16;;;;;;;;;15.00;11.67;;;;;;;;5064116;28;46341;-79
2021/09/12 07:09:42;;;;;;;;;13.75;13.25;;;;;;;;5071740;28;45372;-79
2021/09/12 07:12:08;;;;;;;;;16.67;15.00;;;;;;;;5065652;28;45596;-79
2021/09/12 07:14:33;;;;;;;;;12.75;12.50;;;;;;;;5077909;28;45465;-79
2021/09/12 07:16:59;;;;;;;;;16.50;13.00;;;;;;;;5067694;28;45397;-79
2021/09/12 07:19:24;;;;;;;;;13.25;11.25;;;;;;;;5071465;28;46279;-79
2021/09/12 07:21:52;;;;;;;;;17.25;11.50;;;;;;;;5075990;28;46037;-79
2021/09/12 07:24:17;;;;;;;;;18.50;12.25;;;;;;;;5073608;28;45551;-79
2021/09/12 07:26:42;;;;;;;;;16.67;11.33;;;;;;;;5072001;27;45540;-79
2021/09/12 07:29:07;;;;;;;;;11.75;11.50;;;;;;;;5074336;28;45341;-79
2021/09/12 07:31:32;;;;;;;;;11.00;9.00;;;;;;;;5079300;28;45378;-79
2021/09/12 07:33:59;;;;;;;;;11.33;11.33;;;;;;;;5075636;28;45416;-79
2021/09/12 07:36:24;;;;;;;;;8.00;6.75;;;;;;;;5073122;27;45465;-80
2021/09/12 07:38:50;;;;;;;;;11.67;7.00;;;;;;;;5071443;27;45512;-79
2021/09/12 07:41:15;;;;;;;;;7.33;7.33;;;;;;;;5070970;27;46733;-79
2021/09/12 07:43:40;;;;;;;;;2.00;0.25;;;;;;;;5071284;28;45535;-80
2021/09/12 07:46:05;;;;;;;;;10.00;10.00;;;;;;;;5067534;28;45436;-84
2021/09/12 07:48:30;;;;;;;;;9.00;7.00;;;;;;;;5068910;28;45324;-80
2021/09/12 07:50:56;;;;;;;;;12.00;8.00;;;;;;;;5078290;28;45560;-80
2021/09/12 07:53:21;;;;;;;;;8.33;6.00;;;;;;;;5076930;28;45299;-80
2021/09/12 07:55:46;;;;;;;;;8.00;8.00;;;;;;;;5075808;28;45148;-80
2021/09/12 07:58:11;;;;;;;;;7.25;7.25;;;;;;;;5076921;28;45555;-80
2021/09/12 08:00:37;;;;;;;;;6.25;5.25;;;;;;;;5071405;28;46955;-80
2021/09/12 08:03:03;;;;;;;;;6.00;6.00;;;;;;;;5076796;28;45345;-80
2021/09/12 08:05:28;;;;;;;;;5.50;5.00;;;;;;;;5073326;28;45434;-80
2021/09/12 08:07:53;;;;;;;;;9.33;5.33;;;;;;;;5076016;27;45569;-80
2021/09/12 08:10:18;;;;;;;;;6.25;4.50;;;;;;;;5070719;27;45351;-80
2021/09/12 08:12:44;;;;;;;;;6.25;5.50;;;;;;;;5075552;28;45405;-81
2021/09/12 08:15:09;;;;;;;;;8.00;6.00;;;;;;;;5074911;28;45372;-80
2021/09/12 08:17:34;;;;;;;;;6.00;5.50;;;;;;;;5072303;28;45533;-81
2021/09/12 08:19:59;;;;;;;;;9.50;5.75;;;;;;;;5070800;27;45964;-80
2021/09/12 08:22:25;;;;;;;;;6.33;5.33;;;;;;;;5065516;28;45350;-81
2021/09/12 08:24:50;;;;;;;;;4.50;4.50;;;;;;;;5081607;28;45395;-80
2021/09/12 08:27:15;;;;;;;;;5.00;5.00;;;;;;;;5074937;28;45665;-80
2021/09/12 08:29:40;;;;;;;;;6.00;4.00;;;;;;;;5073965;28;45490;-81
2021/09/12 08:32:06;;;;;;;;;5.00;5.00;;;;;;;;5075241;27;45543;-81
2021/09/12 08:34:31;;;;;;;;;5.50;5.50;;;;;;;;5075469;27;45429;-81
2021/09/12 08:36:57;;;;;;;;;6.00;6.00;;;;;;;;5074191;28;45694;-80
2021/09/12 08:39:22;;;;;;;;;7.50;5.25;;;;;;;;5078411;28;45447;-81
2021/09/12 08:41:47;;;;;;;;;9.00;5.00;;;;;;;;5078759;28;45408;-80
2021/09/12 08:44:16;;;;;;;;;5.25;5.25;;;;;;;;5076597;28;45445;-81
2021/09/12 08:46:42;;;;;;;;;6.50;4.00;;;;;;;;5073925;27;45419;-81
2021/09/12 08:49:07;;;;;;;;;4.00;4.00;;;;;;;;5074484;28;46571;-81
2021/09/12 08:51:32;;;;;;;;;6.00;3.50;;;;;;;;5077293;28;45451;-81
2021/09/12 08:53:58;;;;;;;;;3.00;3.00;;;;;;;;5071906;27;45421;-81
2021/09/12 08:56:23;;;;;;;;;5.25;4.00;;;;;;;;5079104;28;45394;-81
2021/09/12 08:58:48;;;;;;;;;4.50;4.00;;;;;;;;5077432;27;46274;-81
2021/09/12 09:01:14;;;;;;;;;3.75;2.50;;;;;;;;5075576;28;45364;-81
2021/09/12 09:03:41;;;;;;;;;5.67;4.00;;;;;;;;5076448;28;45352;-81
2021/09/12 09:06:29;;;;;;;;;7.00;5.50;;;;;;;;5078515;27;45396;-81
2021/09/12 09:08:56;;;;;;;;;3.25;3.00;;;;;;;;5074827;28;48144;-81
2021/09/12 09:11:29;;;;;;;;;5.75;5.75;;;;;;;;5079747;28;45383;-81
2021/09/12 09:13:54;;;;;;;;;5.50;5.50;;;;;;;;5075504;27;45606;-80
2021/09/12 09:16:27;;;;;;;;;3.50;3.00;;;;;;;;5077917;28;45440;-80
2021/09/12 09:19:03;;;;;;;;;3.75;3.75;;;;;;;;5077180;27;46109;-81
2021/09/12 09:21:30;;;;;;;;;5.50;4.75;;;;;;;;5068113;28;45568;-81
2021/09/12 09:24:06;;;;;;;;;6.50;5.00;;;;;;;;5073643;27;45956;-81
2021/09/12 09:26:34;;;;;;;;;3.25;3.25;;;;;;;;5077425;27;45300;-81
2021/09/12 09:28:59;;;;;;;;;5.00;3.75;;;;;;;;5075351;27;46685;-81
2021/09/12 09:31:25;;;;;;;;;3.50;3.50;;;;;;;;5081011;27;45447;-81
2021/09/12 09:33:50;;;;;;;;;3.00;3.00;;;;;;;;5077315;27;45515;-81
2021/09/12 09:36:17;;;;;;;;;3.00;1.25;;;;;;;;5085225;27;45548;-81
2021/09/12 09:38:45;;;;;;;;;1.75;1.75;;;;;;;;5068124;27;46326;-81
2021/09/12 09:41:12;;;;;;;;;2.00;2.00;;;;;;;;5068910;27;46545;-81
2021/09/12 09:43:51;;;;;;;;;3.50;3.00;;;;;;;;5072225;27;45640;-82
2021/09/12 09:46:27;;;;;;;;;4.00;3.00;;;;;;;;5078540;27;45338;-81
2021/09/12 09:48:53;;;;;;;;;1.75;1.75;;;;;;;;5074444;27;48537;-81
2021/09/12 09:51:19;;;;;;;;;3.00;3.00;;;;;;;;5069076;27;45421;-81
2021/09/12 09:53:44;;;;;;;;;3.25;3.25;;;;;;;;5079918;27;45527;-81
2021/09/12 09:56:10;;;;;;;;;5.75;3.25;;;;;;;;5071436;27;45429;-81
2021/09/12 09:58:35;;;;;;;;;5.00;5.00;;;;;;;;5071708;27;45465;-81
2021/09/12 10:01:00;;;;;;;;;6.00;3.50;;;;;;;;5081684;27;45349;-81
2021/09/12 10:03:26;;;;;;;;;4.00;4.00;;;;;;;;5078184;27;45378;-81
2021/09/12 10:05:51;;;;;;;;;3.00;2.25;;;;;;;;5077118;27;46301;-81
2021/09/12 10:08:17;;;;;;;;;3.00;3.00;;;;;;;;5072713;27;45863;-80
2021/09/12 10:10:43;;;;;;;;;3.00;3.00;;;;;;;;5071424;27;45757;-80
2021/09/12 10:13:10;;;;;;;;;6.00;5.00;;;;;;;;5070128;28;45473;-81
2021/09/12 10:15:38;;;;;;;;;4.00;4.00;;;;;;;;5074113;28;45809;-80
2021/09/12 10:18:04;;;;;;;;;5.00;4.50;;;;;;;;5071659;28;47218;-81
2021/09/12 10:20:31;;;;;;;;;5.00;5.00;;;;;;;;5076809;27;45414;-80
2021/09/12 10:23:11;;;;;;;;;4.25;2.75;;;;;;;;5076897;27;45512;-80
2021/09/12 10:25:46;;;;;;;;;4.00;4.00;;;;;;;;5082293;27;45517;-80
2021/09/12 10:28:11;;;;;;;;;3.00;3.00;;;;;;;;5069024;27;47226;-80
2021/09/12 10:30:38;;;;;;;;;3.75;3.00;;;;;;;;5072411;27;45504;-80
2021/09/12 10:33:06;;;;;;;;;4.00;4.00;;;;;;;;5071562;27;46654;-80
2021/09/12 10:35:50;;;;;;;;;8.50;7.00;;;;;;;;5075183;27;46271;-80
2021/09/12 10:38:26;;;;;;;;;6.50;5.50;;;;;;;;5078749;27;45460;-80
2021/09/12 10:40:53;;;;;;;;;5.00;5.00;;;;;;;;5079716;27;45439;-80
2021/09/12 10:43:24;;;;;;;;;5.75;5.00;;;;;;;;5077094;27;45428;-80
2021/09/12 10:46:05;;;;;;;;;3.50;3.25;;;;;;;;5074465;27;45690;-80
2021/09/12 10:48:30;;;;;;;;;3.25;3.25;;;;;;;;5073630;27;45432;-83
2021/09/12 10:50:56;;;;;;;;;5.00;5.00;;;;;;;;5075899;27;45628;-82
2021/09/12 10:53:48;;;;;;;;;4.00;4.00;;;;;;;;5071266;28;45534;-80
2021/09/12 10:56:19;;;;;;;;;3.75;3.50;;;;;;;;5051378;28;45314;-80
2021/09/12 10:58:44;;;;;;;;;4.25;3.25;;;;;;;;5067381;28;45610;-80
2021/09/12 11:01:14;;;;;;;;;4.00;4.00;;;;;;;;5067834;28;45426;-80
2021/09/12 11:03:45;;;;;;;;;7.25;5.25;;;;;;;;5068255;28;45339;-80
2021/09/12 11:06:15;;;;;;;;;6.75;4.75;;;;;;;;5067371;28;45544;-80
2021/09/12 11:08:40;;;;;;;;;5.50;4.75;;;;;;;;5072604;28;45918;-80
2021/09/12 11:11:06;;;;;;;;;4.25;4.25;;;;;;;;5075514;28;45370;-82
2021/09/12 11:13:32;;;;;;;;;3.75;3.50;;;;;;;;5069584;28;45477;-81
2021/09/12 11:16:04;;;;;;;;;4.75;4.75;;;;;;;;5071259;28;45624;-79
2021/09/12 11:18:46;;;;;;;;;6.00;5.75;;;;;;;;5070049;27;46337;-80
2021/09/12 11:21:22;;;;;;;;;6.00;6.00;;;;;;;;5077254;27;45392;-80
2021/09/12 11:23:47;;;;;;;;;5.75;4.00;;;;;;;;5069252;27;45464;-79
2021/09/12 11:26:12;;;;;;;;;5.00;5.00;;;;;;;;5068730;27;46109;-80
2021/09/12 11:28:38;;;;;;;;;6.67;5.33;;;;;;;;5072696;28;46377;-79
2021/09/12 11:31:03;;;;;;;;;5.33;4.00;;;;;;;;5070799;27;45303;-79
2021/09/12 11:33:47;;;;;;;;;5.25;3.75;;;;;;;;5066366;28;45487;-79
2021/09/12 11:36:12;;;;;;;;;7.50;5.25;;;;;;;;5072583;28;45488;-78
2021/09/12 11:38:38;;;;;;;;;7.50;5.75;;;;;;;;5074374;28;47441;-79
2021/09/12 11:41:03;;;;;;;;;4.00;4.00;;;;;;;;5073837;28;45381;-79
2021/09/12 11:43:28;;;;;;;;;6.25;4.00;;;;;;;;5078061;27;45429;-79
2021/09/12 11:46:09;;;;;;;;;6.00;6.00;;;;;;;;5076749;27;45366;-78
2021/09/12 11:48:35;;;;;;;;;4.50;3.50;;;;;;;;5083530;27;45561;-79
2021/09/12 11:51:01;;;;;;;;;6.00;5.75;;;;;;;;5086001;28;45387;-79
2021/09/12 11:53:26;;;;;;;;;5.50;4.00;;;;;;;;5070178;28;45318;-79
2021/09/12 11:55:52;;;;;;;;;5.50;5.50;;;;;;;;5065076;28;45546;-78
2021/09/12 11:58:17;;;;;;;;;5.00;5.00;;;;;;;;5071832;27;46416;-79
2021/09/12 12:00:45;;;;;;;;;6.75;6.00;;;;;;;;5076504;27;45496;-79
2021/09/12 12:03:11;;;;;;;;;7.00;5.00;;;;;;;;5074941;27;45709;-79
2021/09/12 12:05:37;;;;;;;;;7.75;6.00;;;;;;;;5080033;27;45401;-79
2021/09/12 12:08:06;;;;;;;;;6.50;6.00;;;;;;;;5075049;27;45471;-78
2021/09/12 12:10:35;;;;;;;;;5.25;4.00;;;;;;;;5072852;27;45855;-78
2021/09/12 12:13:01;;;;;;;;;5.00;5.00;;;;;;;;5071135;28;46378;-78
2021/09/12 12:15:35;;;;;;;;;5.50;5.50;;;;;;;;5066773;28;45427;-78
2021/09/12 12:18:00;;;;;;;;;4.25;4.25;;;;;;;;5070274;28;45473;-78
2021/09/12 12:20:31;;;;;;;;;8.75;7.00;;;;;;;;5072745;28;45648;-78
2021/09/12 12:23:11;;;;;;;;;4.75;4.75;;;;;;;;5072981;27;45630;-79
2021/09/12 12:25:36;;;;;;;;;5.25;5.25;;;;;;;;5075349;28;45628;-79
2021/09/12 12:28:13;;;;;;;;;7.75;6.00;;;;;;;;5073538;28;48062;-79
2021/09/12 12:30:38;;;;;;;;;8.75;5.25;;;;;;;;5074541;28;45571;-79
2021/09/12 12:33:04;;;;;;;;;5.25;5.00;;;;;;;;5077057;27;45538;-80
2021/09/12 12:35:29;;;;;;;;;4.50;4.50;;;;;;;;5080637;27;45505;-79
2021/09/12 12:37:55;;;;;;;;;6.25;6.00;;;;;;;;5083041;28;45433;-80
2021/09/12 12:40:21;;;;;;;;;5.75;5.50;;;;;;;;5082036;28;45508;-79
2021/09/12 12:42:49;;;;;;;;;6.75;4.75;;;;;;;;5076699;27;45436;-80
2021/09/12 12:45:17;;;;;;;;;4.25;4.25;;;;;;;;5075789;28;45393;-80
2021/09/12 12:47:42;;;;;;;;;5.00;5.00;;;;;;;;5076656;27;45495;-80
2021/09/12 12:50:08;;;;;;;;;5.50;5.50;;;;;;;;5078073;28;45423;-80
2021/09/12 12:52:33;;;;;;;;;9.50;5.00;;;;;;;;5074949;28;46000;-80
2021/09/12 12:54:59;;;;;;;;;5.00;3.67;;;;;;;;5076530;28;45394;-80
2021/09/12 12:57:27;;;;;;;;;7.50;4.75;;;;;;;;5076691;28;46590;-80
2021/09/12 12:59:52;;;;;;;;;4.75;4.75;;;;;;;;5077741;28;45906;-80
2021/09/12 13:02:18;;;;;;;;;5.00;5.00;;;;;;;;5073875;27;45816;-80
2021/09/12 13:04:43;;;;;;;;;7.00;7.00;;;;;;;;5078329;27;46351;-78
2021/09/12 13:07:09;;;;;;;;;5.25;4.00;;;;;;;;5073220;27;45433;-79
2021/09/12 13:09:34;;;;;;;;;5.50;4.25;;;;;;;;5074473;27;45759;-79
2021/09/12 13:12:00;;;;;;;;;5.50;4.00;;;;;;;;5074453;27;45326;-79
2021/09/12 13:14:25;;;;;;;;;5.75;4.00;;;;;;;;5078976;28;45480;-79
2021/09/12 13:16:50;;;;;;;;;5.25;5.25;;;;;;;;5077523;27;46812;-79
2021/09/12 13:19:15;;;;;;;;;5.33;5.33;;;;;;;;5074867;28;45542;-79
2021/09/12 13:21:41;;;;;;;;;7.25;4.75;;;;;;;;5073557;27;45823;-80
2021/09/12 13:24:06;;;;;;;;;7.00;6.00;;;;;;;;5075806;28;45617;-80
2021/09/12 13:26:31;;;;;;;;;11.00;8.00;;;;;;;;5074265;28;46365;-80
2021/09/12 13:28:57;;;;;;;;;8.00;5.33;;;;;;;;5076643;27;45471;-80
2021/09/12 13:31:22;;;;;;;;;7.75;5.25;;;;;;;;5075821;28;45962;-79
2021/09/12 13:33:49;;;;;;;;;5.75;4.75;;;;;;;;5078471;28;45576;-81
2021/09/12 13:36:15;;;;;;;;;3.75;3.00;;;;;;;;5077730;28;45421;-79
2021/09/12 13:38:40;;;;;;;;;6.25;6.25;;;;;;;;5075307;28;45507;-80
2021/09/12 13:41:05;;;;;;;;;8.67;6.00;;;;;;;;5073228;28;45341;-80
2021/09/12 13:43:31;;;;;;;;;6.25;6.00;;;;;;;;5076304;27;45413;-80
2021/09/12 13:45:57;;;;;;;;;8.25;6.50;;;;;;;;5074663;27;46191;-80
2021/09/12 13:48:23;;;;;;;;;5.00;5.00;;;;;;;;5072375;28;45566;-81
2021/09/12 13:50:48;;;;;;;;;4.00;4.00;;;;;;;;5082174;27;45305;-81
2021/09/12 13:53:13;;;;;;;;;4.50;4.25;;;;;;;;5072864;28;45376;-81
2021/09/12 13:55:38;;;;;;;;;5.00;5.00;;;;;;;;5077479;28;46892;-80
2021/09/12 13:58:07;;;;;;;;;10.00;7.00;;;;;;;;5081071;27;45257;-81
2021/09/12 14:00:33;;;;;;;;;5.75;5.00;;;;;;;;5076085;27;45533;-80
2021/09/12 14:02:59;;;;;;;;;6.75;5.50;;;;;;;;5076435;28;45594;-79
2021/09/12 14:05:24;;;;;;;;;7.00;5.33;;;;;;;;5074471;27;46476;-79
2021/09/12 14:07:49;;;;;;;;;4.75;4.75;;;;;;;;5070777;27;45484;-80
2021/09/12 14:10:15;;;;;;;;;7.75;7.00;;;;;;;;5080749;27;45362;-80
2021/09/12 14:12:40;;;;;;;;;4.00;3.50;;;;;;;;5078528;27;45443;-80
2021/09/12 14:15:06;;;;;;;;;7.50;6.25;;;;;;;;5073974;28;46292;-81
2021/09/12 14:17:31;;;;;;;;;6.25;6.00;;;;;;;;5074904;28;46668;-80
2021/09/12 14:19:59;;;;;;;;;7.75;5.00;;;;;;;;5074111;28;45350;-81
2021/09/12 14:22:25;;;;;;;;;5.25;5.25;;;;;;;;5073703;28;45464;-81
2021/09/12 14:24:51;;;;;;;;;7.00;5.00;;;;;;;;5077865;27;45167;-81
2021/09/12 14:27:16;;;;;;;;;6.25;5.75;;;;;;;;5068399;28;46256;-81